sensor_id;sensor_type;location;lat;lon;timestamp;P1;durP1;ratioP1;P2;durP2;ratioP2
20415;SDS011;10367;52.202;5.996;2023-02-19T00:01:53;41.30;;;18.77;;
20415;SDS011;10367;52.202;5.996;2023-02-19T00:04:22;50.37;;;21.17;;
20415;SDS011;10367;52.202;5.996;2023-02-19T00:06:50;42.80;;;19.63;;
20415;SDS011;10367;52.202;5.996;2023-02-19T00:09:19;39.23;;;17.63;;
20415;SDS011;10367;52.202;5.996;2023-02-19T00:11:48;54.67;;;19.53;;
20415;SDS011;10367;52.202;5.996;2023-02-19T00:14:18;48.30;;;22.75;;
20415;SDS011;10367;52.202;5.996;2023-02-19T00:16:48;49.33;;;19.53;;
20415;SDS011;10367;52.202;5.996;2023-02-19T00:19:17;46.93;;;20.60;;
20415;SDS011;10367;52.202;5.996;2023-02-19T00:21:49;41.40;;;17.30;;
20415;SDS011;10367;52.202;5.996;2023-02-19T00:24:18;35.93;;;17.57;;
20415;SDS011;10367;52.202;5.996;2023-02-19T00:26:47;42.53;;;18.50;;
20415;SDS011;10367;52.202;5.996;2023-02-19T00:29:18;40.37;;;17.63;;
20415;SDS011;10367;52.202;5.996;2023-02-19T00:31:48;42.40;;;20.20;;
20415;SDS011;10367;52.202;5.996;2023-02-19T00:34:17;38.20;;;18.87;;
20415;SDS011;10367;52.202;5.996;2023-02-19T00:36:46;44.43;;;17.50;;
20415;SDS011;10367;52.202;5.996;2023-02-19T00:39:15;32.80;;;16.90;;
20415;SDS011;10367;52.202;5.996;2023-02-19T00:41:44;32.63;;;15.03;;
20415;SDS011;10367;52.202;5.996;2023-02-19T00:44:13;33.00;;;17.30;;
20415;SDS011;10367;52.202;5.996;2023-02-19T00:46:44;38.93;;;16.33;;
20415;SDS011;10367;52.202;5.996;2023-02-19T00:49:16;27.73;;;15.67;;
20415;SDS011;10367;52.202;5.996;2023-02-19T00:51:46;34.60;;;16.30;;
20415;SDS011;10367;52.202;5.996;2023-02-19T00:54:15;23.90;;;14.97;;
20415;SDS011;10367;52.202;5.996;2023-02-19T00:56:45;32.67;;;14.53;;
20415;SDS011;10367;52.202;5.996;2023-02-19T00:59:14;20.37;;;14.10;;
20415;SDS011;10367;52.202;5.996;2023-02-19T01:01:45;30.33;;;14.93;;
20415;SDS011;10367;52.202;5.996;2023-02-19T01:04:15;26.73;;;14.63;;
20415;SDS011;10367;52.202;5.996;2023-02-19T01:06:44;32.70;;;15.03;;
20415;SDS011;10367;52.202;5.996;2023-02-19T01:09:14;27.23;;;14.57;;
20415;SDS011;10367;52.202;5.996;2023-02-19T01:11:43;24.73;;;14.23;;
20415;SDS011;10367;52.202;5.996;2023-02-19T01:14:12;46.43;;;18.53;;
20415;SDS011;10367;52.202;5.996;2023-02-19T01:16:40;22.47;;;12.50;;
20415;SDS011;10367;52.202;5.996;2023-02-19T01:19:10;25.97;;;14.10;;
20415;SDS011;10367;52.202;5.996;2023-02-19T01:21:39;28.57;;;14.60;;
20415;SDS011;10367;52.202;5.996;2023-02-19T01:24:08;27.33;;;13.17;;
20415;SDS011;10367;52.202;5.996;2023-02-19T01:26:36;22.97;;;12.87;;
20415;SDS011;10367;52.202;5.996;2023-02-19T01:29:06;19.53;;;12.80;;
20415;SDS011;10367;52.202;5.996;2023-02-19T01:31:34;34.80;;;14.67;;
20415;SDS011;10367;52.202;5.996;2023-02-19T01:34:03;23.27;;;13.50;;
20415;SDS011;10367;52.202;5.996;2023-02-19T01:36:33;23.27;;;13.43;;
20415;SDS011;10367;52.202;5.996;2023-02-19T01:39:04;24.03;;;13.47;;
20415;SDS011;10367;52.202;5.996;2023-02-19T01:41:34;32.40;;;14.30;;
20415;SDS011;10367;52.202;5.996;2023-02-19T01:44:06;24.57;;;13.60;;
20415;SDS011;10367;52.202;5.996;2023-02-19T01:46:55;23.03;;;12.13;;
20415;SDS011;10367;52.202;5.996;2023-02-19T01:49:24;33.10;;;15.40;;
20415;SDS011;10367;52.202;5.996;2023-02-19T01:51:57;25.33;;;13.13;;
20415;SDS011;10367;52.202;5.996;2023-02-19T01:54:29;35.50;;;15.60;;
20415;SDS011;10367;52.202;5.996;2023-02-19T01:57:02;25.90;;;12.73;;
20415;SDS011;10367;52.202;5.996;2023-02-19T01:59:34;28.83;;;14.57;;
20415;SDS011;10367;52.202;5.996;2023-02-19T02:02:04;24.20;;;12.63;;
20415;SDS011;10367;52.202;5.996;2023-02-19T02:04:33;34.20;;;15.47;;
20415;SDS011;10367;52.202;5.996;2023-02-19T02:07:04;26.50;;;14.70;;
20415;SDS011;10367;52.202;5.996;2023-02-19T02:09:53;19.03;;;11.73;;
20415;SDS011;10367;52.202;5.996;2023-02-19T02:12:41;23.70;;;13.80;;
20415;SDS011;10367;52.202;5.996;2023-02-19T02:15:09;20.90;;;13.40;;
20415;SDS011;10367;52.202;5.996;2023-02-19T02:17:40;32.60;;;15.50;;
20415;SDS011;10367;52.202;5.996;2023-02-19T02:20:26;20.83;;;12.23;;
20415;SDS011;10367;52.202;5.996;2023-02-19T02:23:05;28.23;;;13.37;;
20415;SDS011;10367;52.202;5.996;2023-02-19T02:31:44;27.97;;;13.40;;
20415;SDS011;10367;52.202;5.996;2023-02-19T02:34:17;26.67;;;14.23;;
20415;SDS011;10367;52.202;5.996;2023-02-19T02:36:51;26.83;;;13.60;;
20415;SDS011;10367;52.202;5.996;2023-02-19T02:39:24;24.27;;;14.40;;
20415;SDS011;10367;52.202;5.996;2023-02-19T02:41:55;29.13;;;15.10;;
20415;SDS011;10367;52.202;5.996;2023-02-19T02:44:43;26.70;;;14.97;;
20415;SDS011;10367;52.202;5.996;2023-02-19T02:47:35;36.23;;;17.43;;
20415;SDS011;10367;52.202;5.996;2023-02-19T02:50:08;30.13;;;14.63;;
20415;SDS011;10367;52.202;5.996;2023-02-19T02:52:42;33.83;;;16.27;;
20415;SDS011;10367;52.202;5.996;2023-02-19T02:55:32;28.53;;;15.07;;
20415;SDS011;10367;52.202;5.996;2023-02-19T02:58:04;25.00;;;14.17;;
20415;SDS011;10367;52.202;5.996;2023-02-19T03:00:34;25.40;;;13.57;;
20415;SDS011;10367;52.202;5.996;2023-02-19T03:03:19;27.37;;;13.50;;
20415;SDS011;10367;52.202;5.996;2023-02-19T03:05:51;20.13;;;13.50;;
20415;SDS011;10367;52.202;5.996;2023-02-19T03:08:25;28.63;;;14.67;;
20415;SDS011;10367;52.202;5.996;2023-02-19T03:10:58;27.00;;;13.27;;
20415;SDS011;10367;52.202;5.996;2023-02-19T03:13:50;25.80;;;12.27;;
20415;SDS011;10367;52.202;5.996;2023-02-19T03:16:55;22.50;;;13.30;;
20415;SDS011;10367;52.202;5.996;2023-02-19T03:19:49;24.33;;;13.07;;
20415;SDS011;10367;52.202;5.996;2023-02-19T03:22:24;28.53;;;13.90;;
20415;SDS011;10367;52.202;5.996;2023-02-19T03:24:55;22.37;;;12.80;;
20415;SDS011;10367;52.202;5.996;2023-02-19T03:27:44;29.07;;;15.07;;
20415;SDS011;10367;52.202;5.996;2023-02-19T03:30:15;28.20;;;14.53;;
20415;SDS011;10367;52.202;5.996;2023-02-19T03:32:47;27.70;;;15.27;;
20415;SDS011;10367;52.202;5.996;2023-02-19T03:35:21;23.70;;;14.13;;
20415;SDS011;10367;52.202;5.996;2023-02-19T03:37:54;21.83;;;13.03;;
20415;SDS011;10367;52.202;5.996;2023-02-19T03:40:29;35.33;;;17.10;;
20415;SDS011;10367;52.202;5.996;2023-02-19T03:43:02;27.07;;;14.67;;
20415;SDS011;10367;52.202;5.996;2023-02-19T03:45:42;23.87;;;13.30;;
20415;SDS011;10367;52.202;5.996;2023-02-19T03:48:17;25.73;;;13.23;;
20415;SDS011;10367;52.202;5.996;2023-02-19T03:50:57;28.17;;;15.43;;
20415;SDS011;10367;52.202;5.996;2023-02-19T03:53:37;28.43;;;16.07;;
20415;SDS011;10367;52.202;5.996;2023-02-19T03:56:15;24.13;;;14.93;;
20415;SDS011;10367;52.202;5.996;2023-02-19T03:58:54;24.27;;;14.07;;
20415;SDS011;10367;52.202;5.996;2023-02-19T04:01:28;33.77;;;15.60;;
20415;SDS011;10367;52.202;5.996;2023-02-19T04:04:03;26.93;;;15.07;;
20415;SDS011;10367;52.202;5.996;2023-02-19T04:06:37;39.83;;;17.33;;
20415;SDS011;10367;52.202;5.996;2023-02-19T04:09:09;32.00;;;13.97;;
20415;SDS011;10367;52.202;5.996;2023-02-19T04:11:41;20.60;;;13.53;;
20415;SDS011;10367;52.202;5.996;2023-02-19T04:14:12;29.00;;;14.83;;
20415;SDS011;10367;52.202;5.996;2023-02-19T04:16:46;22.67;;;14.27;;
20415;SDS011;10367;52.202;5.996;2023-02-19T04:19:22;20.83;;;12.43;;
20415;SDS011;10367;52.202;5.996;2023-02-19T04:21:54;24.97;;;13.77;;
20415;SDS011;10367;52.202;5.996;2023-02-19T04:24:26;27.27;;;13.67;;
20415;SDS011;10367;52.202;5.996;2023-02-19T04:26:58;21.50;;;13.43;;
20415;SDS011;10367;52.202;5.996;2023-02-19T04:29:28;25.57;;;13.53;;
20415;SDS011;10367;52.202;5.996;2023-02-19T04:31:56;20.23;;;12.90;;
20415;SDS011;10367;52.202;5.996;2023-02-19T04:34:25;22.87;;;13.17;;
20415;SDS011;10367;52.202;5.996;2023-02-19T04:36:55;18.30;;;12.80;;
20415;SDS011;10367;52.202;5.996;2023-02-19T04:39:24;30.10;;;15.23;;
20415;SDS011;10367;52.202;5.996;2023-02-19T04:41:52;37.10;;;16.90;;
20415;SDS011;10367;52.202;5.996;2023-02-19T04:44:21;18.83;;;13.17;;
20415;SDS011;10367;52.202;5.996;2023-02-19T04:46:50;21.93;;;13.50;;
20415;SDS011;10367;52.202;5.996;2023-02-19T04:49:18;27.17;;;13.27;;
20415;SDS011;10367;52.202;5.996;2023-02-19T04:51:47;24.43;;;13.43;;
20415;SDS011;10367;52.202;5.996;2023-02-19T04:54:17;35.23;;;15.67;;
20415;SDS011;10367;52.202;5.996;2023-02-19T04:56:45;26.20;;;14.53;;
20415;SDS011;10367;52.202;5.996;2023-02-19T04:59:16;23.63;;;12.93;;
20415;SDS011;10367;52.202;5.996;2023-02-19T05:01:45;32.43;;;15.37;;
20415;SDS011;10367;52.202;5.996;2023-02-19T05:04:13;23.43;;;13.90;;
20415;SDS011;10367;52.202;5.996;2023-02-19T05:06:42;25.77;;;14.03;;
20415;SDS011;10367;52.202;5.996;2023-02-19T05:09:11;22.90;;;12.77;;
20415;SDS011;10367;52.202;5.996;2023-02-19T05:11:41;22.20;;;12.87;;
20415;SDS011;10367;52.202;5.996;2023-02-19T05:14:09;23.77;;;13.43;;
20415;SDS011;10367;52.202;5.996;2023-02-19T05:16:38;26.73;;;13.27;;
20415;SDS011;10367;52.202;5.996;2023-02-19T05:19:08;21.40;;;12.13;;
20415;SDS011;10367;52.202;5.996;2023-02-19T05:21:38;34.07;;;14.97;;
20415;SDS011;10367;52.202;5.996;2023-02-19T05:24:07;23.10;;;12.67;;
20415;SDS011;10367;52.202;5.996;2023-02-19T05:26:36;28.80;;;14.00;;
20415;SDS011;10367;52.202;5.996;2023-02-19T05:29:06;25.20;;;12.53;;
20415;SDS011;10367;52.202;5.996;2023-02-19T05:31:34;35.90;;;15.67;;
20415;SDS011;10367;52.202;5.996;2023-02-19T05:34:05;24.23;;;12.17;;
20415;SDS011;10367;52.202;5.996;2023-02-19T05:36:38;17.87;;;11.37;;
20415;SDS011;10367;52.202;5.996;2023-02-19T05:39:08;20.97;;;10.80;;
20415;SDS011;10367;52.202;5.996;2023-02-19T05:41:38;22.87;;;12.33;;
20415;SDS011;10367;52.202;5.996;2023-02-19T05:44:09;18.27;;;11.40;;
20415;SDS011;10367;52.202;5.996;2023-02-19T05:46:38;23.70;;;12.37;;
20415;SDS011;10367;52.202;5.996;2023-02-19T05:49:06;22.33;;;11.43;;
20415;SDS011;10367;52.202;5.996;2023-02-19T05:51:35;20.23;;;11.33;;
20415;SDS011;10367;52.202;5.996;2023-02-19T05:54:04;18.97;;;11.57;;
20415;SDS011;10367;52.202;5.996;2023-02-19T05:56:33;31.27;;;13.13;;
20415;SDS011;10367;52.202;5.996;2023-02-19T05:59:05;19.73;;;11.63;;
20415;SDS011;10367;52.202;5.996;2023-02-19T06:01:36;31.33;;;13.73;;
20415;SDS011;10367;52.202;5.996;2023-02-19T06:04:04;18.30;;;11.47;;
20415;SDS011;10367;52.202;5.996;2023-02-19T06:06:33;26.23;;;11.43;;
20415;SDS011;10367;52.202;5.996;2023-02-19T06:09:03;27.07;;;12.87;;
20415;SDS011;10367;52.202;5.996;2023-02-19T06:11:32;32.07;;;14.07;;
20415;SDS011;10367;52.202;5.996;2023-02-19T06:14:01;32.83;;;13.40;;
20415;SDS011;10367;52.202;5.996;2023-02-19T06:16:30;27.70;;;12.57;;
20415;SDS011;10367;52.202;5.996;2023-02-19T06:19:02;21.67;;;11.30;;
20415;SDS011;10367;52.202;5.996;2023-02-19T06:21:31;28.60;;;13.33;;
20415;SDS011;10367;52.202;5.996;2023-02-19T06:24:03;25.27;;;12.93;;
20415;SDS011;10367;52.202;5.996;2023-02-19T06:26:33;34.63;;;13.93;;
20415;SDS011;10367;52.202;5.996;2023-02-19T06:29:01;20.00;;;11.30;;
20415;SDS011;10367;52.202;5.996;2023-02-19T06:31:30;25.87;;;11.83;;
20415;SDS011;10367;52.202;5.996;2023-02-19T06:34:03;18.87;;;10.63;;
20415;SDS011;10367;52.202;5.996;2023-02-19T06:36:31;25.80;;;11.97;;
20415;SDS011;10367;52.202;5.996;2023-02-19T06:39:02;17.70;;;11.10;;
20415;SDS011;10367;52.202;5.996;2023-02-19T06:41:32;21.87;;;10.67;;
20415;SDS011;10367;52.202;5.996;2023-02-19T06:44:00;31.50;;;13.37;;
20415;SDS011;10367;52.202;5.996;2023-02-19T06:46:29;27.13;;;10.83;;
20415;SDS011;10367;52.202;5.996;2023-02-19T06:48:58;17.93;;;9.73;;
20415;SDS011;10367;52.202;5.996;2023-02-19T06:51:28;21.40;;;11.67;;
20415;SDS011;10367;52.202;5.996;2023-02-19T06:53:58;19.57;;;11.03;;
20415;SDS011;10367;52.202;5.996;2023-02-19T06:56:29;26.90;;;12.47;;
20415;SDS011;10367;52.202;5.996;2023-02-19T06:58:59;20.33;;;10.67;;
20415;SDS011;10367;52.202;5.996;2023-02-19T07:01:29;16.43;;;9.83;;
20415;SDS011;10367;52.202;5.996;2023-02-19T07:03:59;18.20;;;9.90;;
20415;SDS011;10367;52.202;5.996;2023-02-19T07:06:29;20.93;;;10.40;;
20415;SDS011;10367;52.202;5.996;2023-02-19T07:08:59;24.77;;;12.47;;
20415;SDS011;10367;52.202;5.996;2023-02-19T07:11:28;25.30;;;12.23;;
20415;SDS011;10367;52.202;5.996;2023-02-19T07:13:58;20.60;;;11.00;;
20415;SDS011;10367;52.202;5.996;2023-02-19T07:16:28;22.03;;;12.83;;
20415;SDS011;10367;52.202;5.996;2023-02-19T07:18:57;21.87;;;11.60;;
20415;SDS011;10367;52.202;5.996;2023-02-19T07:21:27;26.13;;;12.70;;
20415;SDS011;10367;52.202;5.996;2023-02-19T07:23:57;27.73;;;12.83;;
20415;SDS011;10367;52.202;5.996;2023-02-19T07:26:26;21.37;;;11.97;;
20415;SDS011;10367;52.202;5.996;2023-02-19T07:28:55;20.80;;;10.67;;
20415;SDS011;10367;52.202;5.996;2023-02-19T07:31:23;24.33;;;11.83;;
20415;SDS011;10367;52.202;5.996;2023-02-19T07:33:52;17.43;;;10.80;;
20415;SDS011;10367;52.202;5.996;2023-02-19T07:36:22;18.43;;;11.13;;
20415;SDS011;10367;52.202;5.996;2023-02-19T07:38:52;19.87;;;10.97;;
20415;SDS011;10367;52.202;5.996;2023-02-19T07:41:23;25.20;;;11.53;;
20415;SDS011;10367;52.202;5.996;2023-02-19T07:43:53;22.70;;;10.73;;
20415;SDS011;10367;52.202;5.996;2023-02-19T07:46:22;20.57;;;10.13;;
20415;SDS011;10367;52.202;5.996;2023-02-19T07:48:51;20.13;;;11.23;;
20415;SDS011;10367;52.202;5.996;2023-02-19T07:51:20;17.17;;;10.27;;
20415;SDS011;10367;52.202;5.996;2023-02-19T07:53:49;23.20;;;12.80;;
20415;SDS011;10367;52.202;5.996;2023-02-19T07:56:18;19.77;;;11.00;;
20415;SDS011;10367;52.202;5.996;2023-02-19T07:58:49;23.67;;;12.27;;
20415;SDS011;10367;52.202;5.996;2023-02-19T08:01:18;21.67;;;11.43;;
20415;SDS011;10367;52.202;5.996;2023-02-19T08:04:10;21.57;;;11.10;;
20415;SDS011;10367;52.202;5.996;2023-02-19T08:06:39;18.93;;;11.20;;
20415;SDS011;10367;52.202;5.996;2023-02-19T08:09:08;20.67;;;11.17;;
20415;SDS011;10367;52.202;5.996;2023-02-19T08:11:37;37.03;;;14.40;;
20415;SDS011;10367;52.202;5.996;2023-02-19T08:14:25;16.63;;;10.00;;
20415;SDS011;10367;52.202;5.996;2023-02-19T08:16:54;17.63;;;10.33;;
20415;SDS011;10367;52.202;5.996;2023-02-19T08:19:23;21.97;;;11.63;;
20415;SDS011;10367;52.202;5.996;2023-02-19T08:21:53;31.47;;;13.07;;
20415;SDS011;10367;52.202;5.996;2023-02-19T08:24:22;23.93;;;11.63;;
20415;SDS011;10367;52.202;5.996;2023-02-19T08:26:50;22.83;;;11.40;;
20415;SDS011;10367;52.202;5.996;2023-02-19T08:29:19;28.70;;;12.50;;
20415;SDS011;10367;52.202;5.996;2023-02-19T08:31:50;22.00;;;11.93;;
20415;SDS011;10367;52.202;5.996;2023-02-19T08:34:18;17.60;;;10.53;;
20415;SDS011;10367;52.202;5.996;2023-02-19T08:36:47;25.03;;;11.87;;
20415;SDS011;10367;52.202;5.996;2023-02-19T08:39:16;19.17;;;10.77;;
20415;SDS011;10367;52.202;5.996;2023-02-19T08:41:46;24.20;;;11.67;;
20415;SDS011;10367;52.202;5.996;2023-02-19T08:44:16;24.50;;;12.10;;
20415;SDS011;10367;52.202;5.996;2023-02-19T08:46:45;30.53;;;13.10;;
20415;SDS011;10367;52.202;5.996;2023-02-19T08:49:15;22.23;;;11.93;;
20415;SDS011;10367;52.202;5.996;2023-02-19T08:51:44;24.17;;;12.57;;
20415;SDS011;10367;52.202;5.996;2023-02-19T08:54:12;21.53;;;12.17;;
20415;SDS011;10367;52.202;5.996;2023-02-19T08:56:41;21.80;;;11.83;;
20415;SDS011;10367;52.202;5.996;2023-02-19T08:59:10;23.30;;;11.83;;
20415;SDS011;10367;52.202;5.996;2023-02-19T09:01:38;16.87;;;10.93;;
20415;SDS011;10367;52.202;5.996;2023-02-19T09:04:08;19.90;;;10.10;;
20415;SDS011;10367;52.202;5.996;2023-02-19T09:06:40;26.00;;;12.03;;
20415;SDS011;10367;52.202;5.996;2023-02-19T09:09:09;12.87;;;9.07;;
20415;SDS011;10367;52.202;5.996;2023-02-19T09:11:37;15.60;;;9.77;;
20415;SDS011;10367;52.202;5.996;2023-02-19T09:14:06;19.10;;;10.50;;
20415;SDS011;10367;52.202;5.996;2023-02-19T09:16:35;23.10;;;11.63;;
20415;SDS011;10367;52.202;5.996;2023-02-19T09:19:04;19.97;;;10.67;;
20415;SDS011;10367;52.202;5.996;2023-02-19T09:21:32;19.63;;;10.97;;
20415;SDS011;10367;52.202;5.996;2023-02-19T09:24:03;22.77;;;10.90;;
20415;SDS011;10367;52.202;5.996;2023-02-19T09:26:31;25.63;;;12.53;;
20415;SDS011;10367;52.202;5.996;2023-02-19T09:29:03;15.33;;;9.10;;
20415;SDS011;10367;52.202;5.996;2023-02-19T09:31:32;26.27;;;12.77;;
20415;SDS011;10367;52.202;5.996;2023-02-19T09:34:01;15.77;;;9.63;;
20415;SDS011;10367;52.202;5.996;2023-02-19T09:36:29;17.03;;;10.43;;
20415;SDS011;10367;52.202;5.996;2023-02-19T09:38:59;13.00;;;9.13;;
20415;SDS011;10367;52.202;5.996;2023-02-19T09:41:32;19.97;;;11.07;;
20415;SDS011;10367;52.202;5.996;2023-02-19T09:44:03;15.20;;;9.20;;
20415;SDS011;10367;52.202;5.996;2023-02-19T09:46:37;17.97;;;10.40;;
20415;SDS011;10367;52.202;5.996;2023-02-19T09:49:12;16.50;;;9.63;;
20415;SDS011;10367;52.202;5.996;2023-02-19T09:51:44;20.27;;;10.77;;
20415;SDS011;10367;52.202;5.996;2023-02-19T09:54:17;14.47;;;9.23;;
20415;SDS011;10367;52.202;5.996;2023-02-19T09:56:50;24.10;;;11.63;;
20415;SDS011;10367;52.202;5.996;2023-02-19T09:59:20;15.80;;;9.47;;
20415;SDS011;10367;52.202;5.996;2023-02-19T10:01:53;25.53;;;11.73;;
20415;SDS011;10367;52.202;5.996;2023-02-19T10:04:26;18.97;;;9.93;;
20415;SDS011;10367;52.202;5.996;2023-02-19T10:06:55;22.53;;;11.70;;
20415;SDS011;10367;52.202;5.996;2023-02-19T10:09:29;18.17;;;9.53;;
20415;SDS011;10367;52.202;5.996;2023-02-19T10:11:59;14.47;;;9.40;;
20415;SDS011;10367;52.202;5.996;2023-02-19T10:14:29;14.90;;;8.90;;
20415;SDS011;10367;52.202;5.996;2023-02-19T10:17:03;16.43;;;9.60;;
20415;SDS011;10367;52.202;5.996;2023-02-19T10:19:33;13.00;;;9.07;;
20415;SDS011;10367;52.202;5.996;2023-02-19T10:22:02;13.70;;;8.93;;
20415;SDS011;10367;52.202;5.996;2023-02-19T10:24:32;15.43;;;8.97;;
20415;SDS011;10367;52.202;5.996;2023-02-19T10:27:07;15.37;;;9.70;;
20415;SDS011;10367;52.202;5.996;2023-02-19T10:29:39;19.67;;;10.17;;
20415;SDS011;10367;52.202;5.996;2023-02-19T10:32:10;17.70;;;9.43;;
20415;SDS011;10367;52.202;5.996;2023-02-19T10:34:43;17.13;;;9.30;;
20415;SDS011;10367;52.202;5.996;2023-02-19T10:37:12;18.33;;;9.07;;
20415;SDS011;10367;52.202;5.996;2023-02-19T10:39:44;19.40;;;10.13;;
20415;SDS011;10367;52.202;5.996;2023-02-19T10:42:17;15.83;;;9.50;;
20415;SDS011;10367;52.202;5.996;2023-02-19T10:44:48;12.03;;;8.27;;
20415;SDS011;10367;52.202;5.996;2023-02-19T10:47:21;13.37;;;8.63;;
20415;SDS011;10367;52.202;5.996;2023-02-19T10:49:52;20.07;;;10.50;;
20415;SDS011;10367;52.202;5.996;2023-02-19T10:52:25;20.33;;;9.50;;
20415;SDS011;10367;52.202;5.996;2023-02-19T10:54:56;21.23;;;11.60;;
20415;SDS011;10367;52.202;5.996;2023-02-19T10:57:41;13.47;;;9.20;;
20415;SDS011;10367;52.202;5.996;2023-02-19T11:00:18;24.30;;;11.73;;
20415;SDS011;10367;52.202;5.996;2023-02-19T11:02:50;17.97;;;10.33;;
20415;SDS011;10367;52.202;5.996;2023-02-19T11:05:53;21.30;;;10.53;;
20415;SDS011;10367;52.202;5.996;2023-02-19T11:08:27;13.10;;;8.40;;
20415;SDS011;10367;52.202;5.996;2023-02-19T11:10:57;14.97;;;9.13;;
20415;SDS011;10367;52.202;5.996;2023-02-19T11:13:28;20.57;;;10.37;;
20415;SDS011;10367;52.202;5.996;2023-02-19T11:16:03;18.27;;;10.13;;
20415;SDS011;10367;52.202;5.996;2023-02-19T11:18:32;15.80;;;10.13;;
20415;SDS011;10367;52.202;5.996;2023-02-19T11:21:02;18.00;;;9.77;;
20415;SDS011;10367;52.202;5.996;2023-02-19T11:23:33;27.27;;;12.87;;
20415;SDS011;10367;52.202;5.996;2023-02-19T11:26:04;16.07;;;9.83;;
20415;SDS011;10367;52.202;5.996;2023-02-19T11:28:44;16.77;;;10.23;;
20415;SDS011;10367;52.202;5.996;2023-02-19T11:31:21;16.60;;;9.90;;
20415;SDS011;10367;52.202;5.996;2023-02-19T11:33:55;23.63;;;11.37;;
20415;SDS011;10367;52.202;5.996;2023-02-19T11:36:28;13.90;;;9.43;;
20415;SDS011;10367;52.202;5.996;2023-02-19T11:39:00;14.13;;;9.13;;
20415;SDS011;10367;52.202;5.996;2023-02-19T11:41:48;22.50;;;12.37;;
20415;SDS011;10367;52.202;5.996;2023-02-19T11:44:34;16.27;;;10.27;;
20415;SDS011;10367;52.202;5.996;2023-02-19T11:50:23;17.03;;;10.00;;
20415;SDS011;10367;52.202;5.996;2023-02-19T11:53:02;16.93;;;9.77;;
20415;SDS011;10367;52.202;5.996;2023-02-19T11:55:45;21.13;;;10.80;;
20415;SDS011;10367;52.202;5.996;2023-02-19T11:58:31;16.27;;;9.40;;
20415;SDS011;10367;52.202;5.996;2023-02-19T12:01:22;14.20;;;9.33;;
20415;SDS011;10367;52.202;5.996;2023-02-19T12:04:25;11.60;;;8.83;;
20415;SDS011;10367;52.202;5.996;2023-02-19T12:07:11;17.17;;;9.93;;
20415;SDS011;10367;52.202;5.996;2023-02-19T12:09:51;16.60;;;10.37;;
20415;SDS011;10367;52.202;5.996;2023-02-19T12:12:36;14.40;;;10.07;;
20415;SDS011;10367;52.202;5.996;2023-02-19T12:15:26;13.37;;;9.47;;
20415;SDS011;10367;52.202;5.996;2023-02-19T12:18:21;14.20;;;9.53;;
20415;SDS011;10367;52.202;5.996;2023-02-19T12:21:09;16.47;;;9.80;;
20415;SDS011;10367;52.202;5.996;2023-02-19T12:24:00;21.93;;;11.27;;
20415;SDS011;10367;52.202;5.996;2023-02-19T12:26:40;19.60;;;10.50;;
20415;SDS011;10367;52.202;5.996;2023-02-19T12:29:20;16.13;;;10.30;;
20415;SDS011;10367;52.202;5.996;2023-02-19T12:32:00;18.03;;;11.07;;
20415;SDS011;10367;52.202;5.996;2023-02-19T12:37:43;17.17;;;10.20;;
20415;SDS011;10367;52.202;5.996;2023-02-19T12:40:21;21.93;;;11.53;;
20415;SDS011;10367;52.202;5.996;2023-02-19T12:43:00;21.07;;;11.17;;
20415;SDS011;10367;52.202;5.996;2023-02-19T12:45:39;16.90;;;10.30;;
20415;SDS011;10367;52.202;5.996;2023-02-19T12:48:13;9.70;;;8.60;;
20415;SDS011;10367;52.202;5.996;2023-02-19T12:50:49;18.60;;;10.23;;
20415;SDS011;10367;52.202;5.996;2023-02-19T12:53:30;13.30;;;8.73;;
20415;SDS011;10367;52.202;5.996;2023-02-19T12:56:05;15.97;;;9.33;;
20415;SDS011;10367;52.202;5.996;2023-02-19T12:58:41;18.17;;;9.97;;
20415;SDS011;10367;52.202;5.996;2023-02-19T13:01:14;13.30;;;9.07;;
20415;SDS011;10367;52.202;5.996;2023-02-19T13:03:49;16.67;;;10.53;;
20415;SDS011;10367;52.202;5.996;2023-02-19T13:06:25;13.23;;;9.50;;
20415;SDS011;10367;52.202;5.996;2023-02-19T13:09:01;14.80;;;9.87;;
20415;SDS011;10367;52.202;5.996;2023-02-19T13:11:35;17.27;;;10.70;;
20415;SDS011;10367;52.202;5.996;2023-02-19T13:14:13;11.07;;;8.90;;
20415;SDS011;10367;52.202;5.996;2023-02-19T13:16:52;13.23;;;9.00;;
20415;SDS011;10367;52.202;5.996;2023-02-19T13:19:50;15.90;;;10.03;;
20415;SDS011;10367;52.202;5.996;2023-02-19T13:23:03;13.37;;;9.47;;
20415;SDS011;10367;52.202;5.996;2023-02-19T13:26:06;15.47;;;9.80;;
20415;SDS011;10367;52.202;5.996;2023-02-19T13:29:02;13.60;;;9.47;;
20415;SDS011;10367;52.202;5.996;2023-02-19T13:31:48;15.30;;;9.27;;
20415;SDS011;10367;52.202;5.996;2023-02-19T13:34:34;10.10;;;8.10;;
20415;SDS011;10367;52.202;5.996;2023-02-19T13:37:19;13.93;;;8.87;;
20415;SDS011;10367;52.202;5.996;2023-02-19T13:40:20;11.33;;;8.10;;
20415;SDS011;10367;52.202;5.996;2023-02-19T13:43:00;12.47;;;8.77;;
20415;SDS011;10367;52.202;5.996;2023-02-19T13:45:37;11.57;;;7.87;;
20415;SDS011;10367;52.202;5.996;2023-02-19T13:48:13;10.17;;;8.90;;
20415;SDS011;10367;52.202;5.996;2023-02-19T13:54:12;8.43;;;7.53;;
20415;SDS011;10367;52.202;5.996;2023-02-19T13:56:51;12.27;;;9.10;;
20415;SDS011;10367;52.202;5.996;2023-02-19T13:59:59;12.10;;;8.40;;
20415;SDS011;10367;52.202;5.996;2023-02-19T14:02:30;11.70;;;8.80;;
20415;SDS011;10367;52.202;5.996;2023-02-19T14:05:03;9.57;;;8.57;;
20415;SDS011;10367;52.202;5.996;2023-02-19T14:07:36;11.97;;;8.83;;
20415;SDS011;10367;52.202;5.996;2023-02-19T14:19:43;15.63;;;9.97;;
20415;SDS011;10367;52.202;5.996;2023-02-19T14:25:30;10.07;;;8.73;;
20415;SDS011;10367;52.202;5.996;2023-02-19T14:28:17;12.13;;;9.03;;
20415;SDS011;10367;52.202;5.996;2023-02-19T14:31:01;19.10;;;10.37;;
20415;SDS011;10367;52.202;5.996;2023-02-19T14:33:37;14.90;;;9.57;;
20415;SDS011;10367;52.202;5.996;2023-02-19T14:36:14;9.93;;;8.33;;
20415;SDS011;10367;52.202;5.996;2023-02-19T14:38:54;21.50;;;10.83;;
20415;SDS011;10367;52.202;5.996;2023-02-19T14:41:25;13.97;;;9.57;;
20415;SDS011;10367;52.202;5.996;2023-02-19T14:43:55;11.90;;;8.40;;
20415;SDS011;10367;52.202;5.996;2023-02-19T14:46:28;9.50;;;8.50;;
20415;SDS011;10367;52.202;5.996;2023-02-19T14:49:00;12.17;;;9.60;;
20415;SDS011;10367;52.202;5.996;2023-02-19T14:51:34;11.00;;;9.43;;
20415;SDS011;10367;52.202;5.996;2023-02-19T14:54:09;14.23;;;9.90;;
20415;SDS011;10367;52.202;5.996;2023-02-19T14:56:42;17.77;;;11.03;;
20415;SDS011;10367;52.202;5.996;2023-02-19T14:59:21;21.50;;;10.60;;
20415;SDS011;10367;52.202;5.996;2023-02-19T15:01:53;15.33;;;10.53;;
20415;SDS011;10367;52.202;5.996;2023-02-19T15:04:24;10.50;;;8.90;;
20415;SDS011;10367;52.202;5.996;2023-02-19T15:06:54;12.27;;;9.70;;
20415;SDS011;10367;52.202;5.996;2023-02-19T15:09:29;10.00;;;8.33;;
20415;SDS011;10367;52.202;5.996;2023-02-19T15:12:00;20.63;;;11.03;;
20415;SDS011;10367;52.202;5.996;2023-02-19T15:14:31;12.90;;;9.70;;
20415;SDS011;10367;52.202;5.996;2023-02-19T15:17:02;20.43;;;10.73;;
20415;SDS011;10367;52.202;5.996;2023-02-19T15:19:33;9.43;;;8.50;;
20415;SDS011;10367;52.202;5.996;2023-02-19T15:22:05;15.57;;;10.17;;
20415;SDS011;10367;52.202;5.996;2023-02-19T15:24:42;12.37;;;9.03;;
20415;SDS011;10367;52.202;5.996;2023-02-19T15:27:15;9.83;;;8.47;;
20415;SDS011;10367;52.202;5.996;2023-02-19T15:29:46;14.63;;;9.53;;
20415;SDS011;10367;52.202;5.996;2023-02-19T15:32:21;9.43;;;8.43;;